sensor_id;sensor_type;location;lat;lon;timestamp;P1;durP1;ratioP1;P2;durP2;ratioP2
37593;SDS011;23441;50.856;6.076;2023-05-27T00:01:26;17.58;;;5.88;;
37593;SDS011;23441;50.856;6.076;2023-05-27T00:03:52;18.70;;;5.40;;
37593;SDS011;23441;50.856;6.076;2023-05-27T00:06:18;25.17;;;5.72;;
37593;SDS011;23441;50.856;6.076;2023-05-27T00:08:44;18.15;;;6.60;;
37593;SDS011;23441;50.856;6.076;2023-05-27T00:11:10;20.75;;;6.35;;
37593;SDS011;23441;50.856;6.076;2023-05-27T00:13:35;17.58;;;5.47;;
37593;SDS011;23441;50.856;6.076;2023-05-27T00:16:01;19.00;;;5.72;;
37593;SDS011;23441;50.856;6.076;2023-05-27T00:18:27;17.98;;;5.20;;
37593;SDS011;23441;50.856;6.076;2023-05-27T00:20:52;19.65;;;5.03;;
37593;SDS011;23441;50.856;6.076;2023-05-27T00:23:18;26.85;;;5.93;;
37593;SDS011;23441;50.856;6.076;2023-05-27T00:25:44;24.67;;;5.18;;
37593;SDS011;23441;50.856;6.076;2023-05-27T00:28:10;20.08;;;6.30;;
37593;SDS011;23441;50.856;6.076;2023-05-27T00:30:36;18.92;;;5.40;;
37593;SDS011;23441;50.856;6.076;2023-05-27T00:33:01;21.63;;;5.97;;
37593;SDS011;23441;50.856;6.076;2023-05-27T00:35:28;22.10;;;6.63;;
37593;SDS011;23441;50.856;6.076;2023-05-27T00:37:54;32.22;;;7.05;;
37593;SDS011;23441;50.856;6.076;2023-05-27T00:40:20;20.52;;;6.28;;
37593;SDS011;23441;50.856;6.076;2023-05-27T00:42:48;19.73;;;5.60;;
37593;SDS011;23441;50.856;6.076;2023-05-27T00:45:13;16.95;;;5.50;;
37593;SDS011;23441;50.856;6.076;2023-05-27T00:47:39;21.40;;;6.00;;
37593;SDS011;23441;50.856;6.076;2023-05-27T00:50:05;18.90;;;6.15;;
37593;SDS011;23441;50.856;6.076;2023-05-27T00:52:33;24.83;;;6.07;;
37593;SDS011;23441;50.856;6.076;2023-05-27T00:54:58;26.23;;;6.18;;
37593;SDS011;23441;50.856;6.076;2023-05-27T00:57:24;20.27;;;6.28;;
37593;SDS011;23441;50.856;6.076;2023-05-27T00:59:51;19.40;;;6.38;;
37593;SDS011;23441;50.856;6.076;2023-05-27T01:02:17;19.88;;;7.03;;
37593;SDS011;23441;50.856;6.076;2023-05-27T01:04:43;23.27;;;6.22;;
37593;SDS011;23441;50.856;6.076;2023-05-27T01:09:52;21.38;;;5.40;;
37593;SDS011;23441;50.856;6.076;2023-05-27T01:15:07;23.90;;;6.57;;
37593;SDS011;23441;50.856;6.076;2023-05-27T01:17:34;21.23;;;6.78;;
37593;SDS011;23441;50.856;6.076;2023-05-27T01:20:07;28.17;;;7.28;;
37593;SDS011;23441;50.856;6.076;2023-05-27T01:22:36;27.30;;;6.28;;
37593;SDS011;23441;50.856;6.076;2023-05-27T01:25:06;16.85;;;6.22;;
37593;SDS011;23441;50.856;6.076;2023-05-27T01:27:33;19.42;;;7.30;;
37593;SDS011;23441;50.856;6.076;2023-05-27T01:29:58;24.27;;;6.65;;
37593;SDS011;23441;50.856;6.076;2023-05-27T01:32:34;25.50;;;6.28;;
37593;SDS011;23441;50.856;6.076;2023-05-27T01:35:35;22.80;;;6.38;;
37593;SDS011;23441;50.856;6.076;2023-05-27T01:38:10;17.27;;;5.80;;
37593;SDS011;23441;50.856;6.076;2023-05-27T01:40:38;23.65;;;6.90;;
37593;SDS011;23441;50.856;6.076;2023-05-27T01:43:05;21.98;;;6.72;;
37593;SDS011;23441;50.856;6.076;2023-05-27T01:45:32;22.92;;;7.13;;
37593;SDS011;23441;50.856;6.076;2023-05-27T01:47:59;22.63;;;7.25;;
37593;SDS011;23441;50.856;6.076;2023-05-27T01:50:25;24.77;;;6.15;;
37593;SDS011;23441;50.856;6.076;2023-05-27T01:52:51;20.25;;;6.47;;
37593;SDS011;23441;50.856;6.076;2023-05-27T01:55:16;24.50;;;8.02;;
37593;SDS011;23441;50.856;6.076;2023-05-27T01:57:42;21.88;;;6.40;;
37593;SDS011;23441;50.856;6.076;2023-05-27T02:00:08;22.13;;;6.70;;
37593;SDS011;23441;50.856;6.076;2023-05-27T02:02:35;28.15;;;6.70;;
37593;SDS011;23441;50.856;6.076;2023-05-27T02:05:01;29.63;;;7.35;;
37593;SDS011;23441;50.856;6.076;2023-05-27T02:07:27;28.25;;;7.07;;
37593;SDS011;23441;50.856;6.076;2023-05-27T02:09:53;26.75;;;7.07;;
37593;SDS011;23441;50.856;6.076;2023-05-27T02:15:42;22.80;;;6.18;;
37593;SDS011;23441;50.856;6.076;2023-05-27T02:18:08;22.77;;;7.22;;
37593;SDS011;23441;50.856;6.076;2023-05-27T02:23:57;19.73;;;6.80;;
37593;SDS011;23441;50.856;6.076;2023-05-27T02:26:23;24.25;;;7.03;;
37593;SDS011;23441;50.856;6.076;2023-05-27T02:28:48;18.45;;;7.38;;
37593;SDS011;23441;50.856;6.076;2023-05-27T02:31:15;18.00;;;6.60;;
37593;SDS011;23441;50.856;6.076;2023-05-27T02:33:40;23.55;;;7.50;;
37593;SDS011;23441;50.856;6.076;2023-05-27T02:36:06;18.20;;;7.10;;
37593;SDS011;23441;50.856;6.076;2023-05-27T02:38:32;17.38;;;7.03;;
37593;SDS011;23441;50.856;6.076;2023-05-27T02:40:58;21.73;;;7.43;;
37593;SDS011;23441;50.856;6.076;2023-05-27T02:43:23;25.80;;;7.32;;
37593;SDS011;23441;50.856;6.076;2023-05-27T02:45:49;23.33;;;7.65;;
37593;SDS011;23441;50.856;6.076;2023-05-27T02:48:15;27.55;;;7.95;;
37593;SDS011;23441;50.856;6.076;2023-05-27T02:50:40;18.60;;;7.45;;
37593;SDS011;23441;50.856;6.076;2023-05-27T02:53:06;25.15;;;7.03;;
37593;SDS011;23441;50.856;6.076;2023-05-27T02:55:32;25.92;;;6.85;;
37593;SDS011;23441;50.856;6.076;2023-05-27T02:57:57;28.10;;;7.85;;
37593;SDS011;23441;50.856;6.076;2023-05-27T03:00:23;21.88;;;7.18;;
37593;SDS011;23441;50.856;6.076;2023-05-27T03:02:49;29.48;;;7.22;;
37593;SDS011;23441;50.856;6.076;2023-05-27T03:05:14;23.42;;;6.80;;
37593;SDS011;23441;50.856;6.076;2023-05-27T03:07:40;20.85;;;6.65;;
37593;SDS011;23441;50.856;6.076;2023-05-27T03:10:06;18.00;;;7.18;;
37593;SDS011;23441;50.856;6.076;2023-05-27T03:12:33;24.50;;;6.43;;
37593;SDS011;23441;50.856;6.076;2023-05-27T03:14:58;20.77;;;6.60;;
37593;SDS011;23441;50.856;6.076;2023-05-27T03:17:24;29.17;;;7.90;;
37593;SDS011;23441;50.856;6.076;2023-05-27T03:19:51;27.25;;;7.05;;
37593;SDS011;23441;50.856;6.076;2023-05-27T03:22:17;27.15;;;7.32;;
37593;SDS011;23441;50.856;6.076;2023-05-27T03:24:43;24.20;;;7.88;;
37593;SDS011;23441;50.856;6.076;2023-05-27T03:27:09;22.73;;;7.50;;
37593;SDS011;23441;50.856;6.076;2023-05-27T03:29:35;22.20;;;6.93;;
37593;SDS011;23441;50.856;6.076;2023-05-27T03:32:01;23.65;;;6.93;;
37593;SDS011;23441;50.856;6.076;2023-05-27T03:34:27;31.13;;;7.88;;
37593;SDS011;23441;50.856;6.076;2023-05-27T03:36:52;29.20;;;7.63;;
37593;SDS011;23441;50.856;6.076;2023-05-27T03:39:18;31.85;;;8.15;;
37593;SDS011;23441;50.856;6.076;2023-05-27T03:41:44;30.25;;;7.60;;
37593;SDS011;23441;50.856;6.076;2023-05-27T03:44:10;26.85;;;7.93;;
37593;SDS011;23441;50.856;6.076;2023-05-27T03:46:35;26.27;;;7.57;;
37593;SDS011;23441;50.856;6.076;2023-05-27T03:49:01;19.08;;;6.90;;
37593;SDS011;23441;50.856;6.076;2023-05-27T03:51:27;29.13;;;7.20;;
37593;SDS011;23441;50.856;6.076;2023-05-27T03:53:53;24.63;;;7.15;;
37593;SDS011;23441;50.856;6.076;2023-05-27T03:56:18;24.90;;;7.03;;
37593;SDS011;23441;50.856;6.076;2023-05-27T03:58:44;27.55;;;7.50;;
37593;SDS011;23441;50.856;6.076;2023-05-27T04:01:11;26.40;;;7.57;;
37593;SDS011;23441;50.856;6.076;2023-05-27T04:03:37;27.42;;;6.55;;
37593;SDS011;23441;50.856;6.076;2023-05-27T04:06:05;23.83;;;6.75;;
37593;SDS011;23441;50.856;6.076;2023-05-27T04:08:31;20.70;;;6.90;;
37593;SDS011;23441;50.856;6.076;2023-05-27T04:10:57;27.83;;;7.65;;
37593;SDS011;23441;50.856;6.076;2023-05-27T04:13:23;24.42;;;6.93;;
37593;SDS011;23441;50.856;6.076;2023-05-27T04:15:48;16.90;;;6.72;;
37593;SDS011;23441;50.856;6.076;2023-05-27T04:18:14;23.60;;;6.80;;
37593;SDS011;23441;50.856;6.076;2023-05-27T04:20:40;25.42;;;8.52;;
37593;SDS011;23441;50.856;6.076;2023-05-27T04:23:10;22.92;;;7.50;;
37593;SDS011;23441;50.856;6.076;2023-05-27T04:25:36;22.20;;;7.20;;
37593;SDS011;23441;50.856;6.076;2023-05-27T04:28:02;20.92;;;7.40;;
37593;SDS011;23441;50.856;6.076;2023-05-27T04:30:29;25.50;;;6.68;;
37593;SDS011;23441;50.856;6.076;2023-05-27T04:32:55;28.58;;;7.45;;
37593;SDS011;23441;50.856;6.076;2023-05-27T04:35:21;25.02;;;7.28;;
37593;SDS011;23441;50.856;6.076;2023-05-27T04:37:48;18.38;;;7.15;;
37593;SDS011;23441;50.856;6.076;2023-05-27T04:40:15;17.85;;;7.45;;
37593;SDS011;23441;50.856;6.076;2023-05-27T04:42:41;20.45;;;7.18;;
37593;SDS011;23441;50.856;6.076;2023-05-27T04:45:09;18.90;;;6.88;;
37593;SDS011;23441;50.856;6.076;2023-05-27T04:47:38;27.13;;;7.53;;
37593;SDS011;23441;50.856;6.076;2023-05-27T04:50:06;22.48;;;7.00;;
37593;SDS011;23441;50.856;6.076;2023-05-27T04:52:33;18.60;;;7.10;;
37593;SDS011;23441;50.856;6.076;2023-05-27T04:55:06;28.80;;;7.75;;
37593;SDS011;23441;50.856;6.076;2023-05-27T04:57:33;22.80;;;7.35;;
37593;SDS011;23441;50.856;6.076;2023-05-27T04:59:59;26.02;;;8.07;;
37593;SDS011;23441;50.856;6.076;2023-05-27T05:02:27;26.77;;;8.18;;
37593;SDS011;23441;50.856;6.076;2023-05-27T05:05:02;25.75;;;7.05;;
37593;SDS011;23441;50.856;6.076;2023-05-27T05:07:29;14.90;;;6.97;;
37593;SDS011;23441;50.856;6.076;2023-05-27T05:09:56;27.08;;;7.63;;
37593;SDS011;23441;50.856;6.076;2023-05-27T05:12:22;24.50;;;6.97;;
37593;SDS011;23441;50.856;6.076;2023-05-27T05:14:48;22.98;;;7.82;;
37593;SDS011;23441;50.856;6.076;2023-05-27T05:17:13;20.83;;;7.45;;
37593;SDS011;23441;50.856;6.076;2023-05-27T05:19:39;17.00;;;6.65;;
37593;SDS011;23441;50.856;6.076;2023-05-27T05:22:04;23.73;;;6.72;;
37593;SDS011;23441;50.856;6.076;2023-05-27T05:24:30;20.67;;;7.55;;
37593;SDS011;23441;50.856;6.076;2023-05-27T05:26:56;20.73;;;6.65;;
37593;SDS011;23441;50.856;6.076;2023-05-27T05:29:22;20.75;;;6.90;;
37593;SDS011;23441;50.856;6.076;2023-05-27T05:31:47;26.67;;;7.97;;
37593;SDS011;23441;50.856;6.076;2023-05-27T05:34:13;21.60;;;7.13;;
37593;SDS011;23441;50.856;6.076;2023-05-27T05:36:39;14.15;;;6.47;;
37593;SDS011;23441;50.856;6.076;2023-05-27T05:39:04;20.75;;;6.85;;
37593;SDS011;23441;50.856;6.076;2023-05-27T05:41:30;24.67;;;7.32;;
37593;SDS011;23441;50.856;6.076;2023-05-27T05:43:58;19.38;;;6.68;;
37593;SDS011;23441;50.856;6.076;2023-05-27T05:46:23;22.33;;;7.00;;
37593;SDS011;23441;50.856;6.076;2023-05-27T05:48:51;22.33;;;7.53;;
37593;SDS011;23441;50.856;6.076;2023-05-27T05:51:18;18.90;;;6.38;;
37593;SDS011;23441;50.856;6.076;2023-05-27T05:53:44;21.98;;;7.57;;
37593;SDS011;23441;50.856;6.076;2023-05-27T05:56:10;23.27;;;7.70;;
37593;SDS011;23441;50.856;6.076;2023-05-27T05:58:35;26.30;;;7.85;;
37593;SDS011;23441;50.856;6.076;2023-05-27T06:01:01;23.08;;;7.20;;
37593;SDS011;23441;50.856;6.076;2023-05-27T06:03:30;21.40;;;5.97;;
37593;SDS011;23441;50.856;6.076;2023-05-27T06:05:55;25.35;;;7.22;;
37593;SDS011;23441;50.856;6.076;2023-05-27T06:08:21;21.65;;;6.32;;
37593;SDS011;23441;50.856;6.076;2023-05-27T06:10:47;21.67;;;6.40;;
37593;SDS011;23441;50.856;6.076;2023-05-27T06:13:12;25.58;;;6.88;;
37593;SDS011;23441;50.856;6.076;2023-05-27T06:15:39;18.92;;;5.88;;
37593;SDS011;23441;50.856;6.076;2023-05-27T06:18:04;19.63;;;6.40;;
37593;SDS011;23441;50.856;6.076;2023-05-27T06:20:30;19.02;;;5.82;;
37593;SDS011;23441;50.856;6.076;2023-05-27T06:22:56;18.35;;;5.80;;
37593;SDS011;23441;50.856;6.076;2023-05-27T06:25:21;17.88;;;6.30;;
37593;SDS011;23441;50.856;6.076;2023-05-27T06:27:47;23.13;;;6.75;;
37593;SDS011;23441;50.856;6.076;2023-05-27T06:30:13;17.13;;;6.18;;
37593;SDS011;23441;50.856;6.076;2023-05-27T06:32:38;23.27;;;6.05;;
37593;SDS011;23441;50.856;6.076;2023-05-27T06:35:04;20.17;;;6.28;;
37593;SDS011;23441;50.856;6.076;2023-05-27T06:37:30;16.55;;;6.03;;
37593;SDS011;23441;50.856;6.076;2023-05-27T06:39:56;16.05;;;5.82;;
37593;SDS011;23441;50.856;6.076;2023-05-27T06:42:21;19.30;;;6.22;;
37593;SDS011;23441;50.856;6.076;2023-05-27T06:44:47;16.33;;;6.30;;
37593;SDS011;23441;50.856;6.076;2023-05-27T06:47:13;17.60;;;5.70;;
37593;SDS011;23441;50.856;6.076;2023-05-27T06:49:39;19.08;;;6.68;;
37593;SDS011;23441;50.856;6.076;2023-05-27T06:52:05;16.98;;;6.68;;
37593;SDS011;23441;50.856;6.076;2023-05-27T06:54:31;21.75;;;6.63;;
37593;SDS011;23441;50.856;6.076;2023-05-27T06:56:57;24.88;;;6.45;;
37593;SDS011;23441;50.856;6.076;2023-05-27T06:59:23;18.40;;;6.00;;
37593;SDS011;23441;50.856;6.076;2023-05-27T07:01:48;17.90;;;6.50;;
37593;SDS011;23441;50.856;6.076;2023-05-27T07:04:15;20.85;;;6.10;;
37593;SDS011;23441;50.856;6.076;2023-05-27T07:06:42;18.60;;;6.28;;
37593;SDS011;23441;50.856;6.076;2023-05-27T07:09:07;21.50;;;6.15;;
37593;SDS011;23441;50.856;6.076;2023-05-27T07:11:33;19.60;;;6.40;;
37593;SDS011;23441;50.856;6.076;2023-05-27T07:13:59;18.98;;;6.28;;
37593;SDS011;23441;50.856;6.076;2023-05-27T07:16:25;17.70;;;6.53;;
37593;SDS011;23441;50.856;6.076;2023-05-27T07:18:51;17.20;;;5.93;;
37593;SDS011;23441;50.856;6.076;2023-05-27T07:21:16;16.00;;;6.20;;
37593;SDS011;23441;50.856;6.076;2023-05-27T07:23:42;15.93;;;5.93;;
37593;SDS011;23441;50.856;6.076;2023-05-27T07:26:08;19.33;;;6.10;;
37593;SDS011;23441;50.856;6.076;2023-05-27T07:28:33;20.48;;;6.28;;
37593;SDS011;23441;50.856;6.076;2023-05-27T07:30:59;21.08;;;6.63;;
37593;SDS011;23441;50.856;6.076;2023-05-27T07:33:25;22.65;;;6.10;;
37593;SDS011;23441;50.856;6.076;2023-05-27T07:35:50;22.50;;;6.15;;
37593;SDS011;23441;50.856;6.076;2023-05-27T07:38:18;15.90;;;5.68;;
37593;SDS011;23441;50.856;6.076;2023-05-27T07:40:43;19.55;;;6.50;;
37593;SDS011;23441;50.856;6.076;2023-05-27T07:43:09;15.60;;;5.93;;
37593;SDS011;23441;50.856;6.076;2023-05-27T07:45:36;18.10;;;6.13;;
37593;SDS011;23441;50.856;6.076;2023-05-27T07:48:01;19.52;;;6.30;;
37593;SDS011;23441;50.856;6.076;2023-05-27T07:50:28;23.70;;;6.25;;
37593;SDS011;23441;50.856;6.076;2023-05-27T07:52:53;17.10;;;6.05;;
37593;SDS011;23441;50.856;6.076;2023-05-27T07:55:19;25.00;;;5.85;;
37593;SDS011;23441;50.856;6.076;2023-05-27T07:57:45;18.58;;;6.22;;
37593;SDS011;23441;50.856;6.076;2023-05-27T08:00:10;23.23;;;6.50;;
37593;SDS011;23441;50.856;6.076;2023-05-27T08:02:38;21.08;;;5.80;;
37593;SDS011;23441;50.856;6.076;2023-05-27T08:05:03;30.67;;;6.70;;
37593;SDS011;23441;50.856;6.076;2023-05-27T08:07:29;31.75;;;10.05;;
37593;SDS011;23441;50.856;6.076;2023-05-27T08:09:55;27.08;;;8.68;;
37593;SDS011;23441;50.856;6.076;2023-05-27T08:12:21;16.98;;;5.57;;
37593;SDS011;23441;50.856;6.076;2023-05-27T08:14:47;20.02;;;5.85;;
37593;SDS011;23441;50.856;6.076;2023-05-27T08:17:14;24.20;;;6.53;;
37593;SDS011;23441;50.856;6.076;2023-05-27T08:19:40;24.95;;;7.13;;
37593;SDS011;23441;50.856;6.076;2023-05-27T08:22:06;21.95;;;5.63;;
37593;SDS011;23441;50.856;6.076;2023-05-27T08:24:34;26.75;;;6.43;;
37593;SDS011;23441;50.856;6.076;2023-05-27T08:27:00;18.30;;;5.95;;
37593;SDS011;23441;50.856;6.076;2023-05-27T08:29:27;19.77;;;5.30;;
37593;SDS011;23441;50.856;6.076;2023-05-27T08:31:55;23.65;;;6.00;;
37593;SDS011;23441;50.856;6.076;2023-05-27T08:34:21;18.35;;;5.30;;
37593;SDS011;23441;50.856;6.076;2023-05-27T08:36:47;14.52;;;4.82;;
37593;SDS011;23441;50.856;6.076;2023-05-27T08:39:13;28.15;;;5.63;;
37593;SDS011;23441;50.856;6.076;2023-05-27T08:41:38;22.50;;;5.60;;
37593;SDS011;23441;50.856;6.076;2023-05-27T08:44:05;23.95;;;6.13;;
37593;SDS011;23441;50.856;6.076;2023-05-27T08:46:32;23.50;;;5.90;;
37593;SDS011;23441;50.856;6.076;2023-05-27T08:48:58;16.73;;;5.40;;
37593;SDS011;23441;50.856;6.076;2023-05-27T08:51:25;17.52;;;5.15;;
37593;SDS011;23441;50.856;6.076;2023-05-27T08:53:52;17.60;;;5.03;;
37593;SDS011;23441;50.856;6.076;2023-05-27T08:56:18;17.42;;;5.18;;
37593;SDS011;23441;50.856;6.076;2023-05-27T08:58:48;20.67;;;5.70;;
37593;SDS011;23441;50.856;6.076;2023-05-27T09:01:18;21.50;;;5.47;;
37593;SDS011;23441;50.856;6.076;2023-05-27T09:03:46;16.17;;;5.57;;
37593;SDS011;23441;50.856;6.076;2023-05-27T12:47:50;14.45;;;4.72;;
37593;SDS011;23441;50.856;6.076;2023-05-27T12:50:17;16.27;;;4.15;;
37593;SDS011;23441;50.856;6.076;2023-05-27T12:52:43;16.13;;;4.43;;
37593;SDS011;23441;50.856;6.076;2023-05-27T12:55:16;9.35;;;3.65;;
37593;SDS011;23441;50.856;6.076;2023-05-27T12:57:43;13.95;;;4.70;;
37593;SDS011;23441;50.856;6.076;2023-05-27T13:00:09;9.23;;;4.10;;
37593;SDS011;23441;50.856;6.076;2023-05-27T13:02:36;21.08;;;4.53;;
37593;SDS011;23441;50.856;6.076;2023-05-27T13:05:03;17.90;;;5.25;;
37593;SDS011;23441;50.856;6.076;2023-05-27T13:07:31;12.35;;;4.50;;
37593;SDS011;23441;50.856;6.076;2023-05-27T13:09:56;12.85;;;4.30;;
37593;SDS011;23441;50.856;6.076;2023-05-27T13:12:25;12.07;;;4.53;;
37593;SDS011;23441;50.856;6.076;2023-05-27T13:14:50;11.93;;;4.05;;
37593;SDS011;23441;50.856;6.076;2023-05-27T13:24:19;16.73;;;4.32;;
37593;SDS011;23441;50.856;6.076;2023-05-27T13:40:09;9.82;;;4.30;;
37593;SDS011;23441;50.856;6.076;2023-05-27T13:42:35;12.05;;;4.43;;
37593;SDS011;23441;50.856;6.076;2023-05-27T13:45:02;14.13;;;4.30;;
37593;SDS011;23441;50.856;6.076;2023-05-27T13:47:28;14.90;;;4.47;;
37593;SDS011;23441;50.856;6.076;2023-05-27T13:49:53;12.18;;;5.00;;
37593;SDS011;23441;50.856;6.076;2023-05-27T13:52:19;12.82;;;4.68;;
37593;SDS011;23441;50.856;6.076;2023-05-27T13:54:44;10.18;;;4.47;;
37593;SDS011;23441;50.856;6.076;2023-05-27T13:57:10;11.90;;;4.47;;
37593;SDS011;23441;50.856;6.076;2023-05-27T13:59:36;16.42;;;4.95;;
37593;SDS011;23441;50.856;6.076;2023-05-27T14:02:01;15.18;;;5.18;;
37593;SDS011;23441;50.856;6.076;2023-05-27T14:04:34;19.27;;;5.30;;
37593;SDS011;23441;50.856;6.076;2023-05-27T14:06:59;17.60;;;4.82;;
37593;SDS011;23441;50.856;6.076;2023-05-27T14:09:25;13.07;;;4.45;;
37593;SDS011;23441;50.856;6.076;2023-05-27T14:11:51;13.13;;;4.30;;
37593;SDS011;23441;50.856;6.076;2023-05-27T14:14:16;14.02;;;5.00;;
37593;SDS011;23441;50.856;6.076;2023-05-27T14:16:42;16.88;;;5.13;;
37593;SDS011;23441;50.856;6.076;2023-05-27T14:19:07;10.00;;;3.88;;
37593;SDS011;23441;50.856;6.076;2023-05-27T14:21:33;13.25;;;4.55;;
37593;SDS011;23441;50.856;6.076;2023-05-27T14:23:59;15.10;;;5.38;;
37593;SDS011;23441;50.856;6.076;2023-05-27T14:26:25;13.23;;;4.22;;
37593;SDS011;23441;50.856;6.076;2023-05-27T14:28:51;12.90;;;4.25;;
37593;SDS011;23441;50.856;6.076;2023-05-27T14:31:17;17.25;;;4.70;;
37593;SDS011;23441;50.856;6.076;2023-05-27T14:33:43;15.02;;;4.90;;
37593;SDS011;23441;50.856;6.076;2023-05-27T14:36:09;15.30;;;4.97;;
37593;SDS011;23441;50.856;6.076;2023-05-27T14:38:35;15.93;;;5.10;;
37593;SDS011;23441;50.856;6.076;2023-05-27T14:41:01;16.88;;;6.13;;
37593;SDS011;23441;50.856;6.076;2023-05-27T14:43:27;11.07;;;4.82;;
37593;SDS011;23441;50.856;6.076;2023-05-27T14:45:53;14.18;;;5.28;;
37593;SDS011;23441;50.856;6.076;2023-05-27T14:48:18;16.30;;;5.30;;
37593;SDS011;23441;50.856;6.076;2023-05-27T14:50:44;15.45;;;5.05;;
37593;SDS011;23441;50.856;6.076;2023-05-27T14:53:10;12.55;;;4.45;;
37593;SDS011;23441;50.856;6.076;2023-05-27T14:55:36;12.52;;;4.82;;
37593;SDS011;23441;50.856;6.076;2023-05-27T15:05:11;17.15;;;4.22;;
37593;SDS011;23441;50.856;6.076;2023-05-27T15:07:37;14.55;;;4.40;;
37593;SDS011;23441;50.856;6.076;2023-05-27T15:10:04;12.50;;;5.10;;
37593;SDS011;23441;50.856;6.076;2023-05-27T15:12:41;12.70;;;4.80;;
37593;SDS011;23441;50.856;6.076;2023-05-27T15:15:11;14.27;;;5.38;;
37593;SDS011;23441;50.856;6.076;2023-05-27T15:17:40;12.80;;;4.75;;
37593;SDS011;23441;50.856;6.076;2023-05-27T15:20:09;10.95;;;4.43;;
37593;SDS011;23441;50.856;6.076;2023-05-27T15:22:36;14.02;;;4.78;;
37593;SDS011;23441;50.856;6.076;2023-05-27T15:25:02;14.25;;;4.60;;
37593;SDS011;23441;50.856;6.076;2023-05-27T15:27:28;14.32;;;4.97;;
37593;SDS011;23441;50.856;6.076;2023-05-27T15:29:54;22.73;;;4.43;;
37593;SDS011;23441;50.856;6.076;2023-05-27T15:32:19;10.98;;;4.47;;
37593;SDS011;23441;50.856;6.076;2023-05-27T15:34:45;16.35;;;4.95;;
37593;SDS011;23441;50.856;6.076;2023-05-27T15:37:11;14.13;;;4.38;;
37593;SDS011;23441;50.856;6.076;2023-05-27T15:39:36;15.15;;;4.45;;
37593;SDS011;23441;50.856;6.076;2023-05-27T15:42:02;11.02;;;4.90;;
37593;SDS011;23441;50.856;6.076;2023-05-27T15:44:28;13.95;;;5.20;;
37593;SDS011;23441;50.856;6.076;2023-05-27T15:46:54;10.45;;;4.45;;
37593;SDS011;23441;50.856;6.076;2023-05-27T15:49:20;19.98;;;4.70;;
37593;SDS011;23441;50.856;6.076;2023-05-27T15:51:45;9.95;;;4.35;;
37593;SDS011;23441;50.856;6.076;2023-05-27T15:54:11;11.25;;;4.32;;
37593;SDS011;23441;50.856;6.076;2023-05-27T15:56:38;14.77;;;4.70;;
37593;SDS011;23441;50.856;6.076;2023-05-27T16:05:50;11.93;;;4.22;;
37593;SDS011;23441;50.856;6.076;2023-05-27T16:08:16;13.10;;;4.47;;
37593;SDS011;23441;50.856;6.076;2023-05-27T16:10:45;12.85;;;4.60;;
37593;SDS011;23441;50.856;6.076;2023-05-27T16:13:16;15.35;;;4.50;;
37593;SDS011;23441;50.856;6.076;2023-05-27T16:15:42;13.00;;;4.43;;
37593;SDS011;23441;50.856;6.076;2023-05-27T16:18:08;13.60;;;4.68;;
37593;SDS011;23441;50.856;6.076;2023-05-27T16:20:36;14.63;;;4.93;;
37593;SDS011;23441;50.856;6.076;2023-05-27T16:23:02;14.38;;;6.43;;
37593;SDS011;23441;50.856;6.076;2023-05-27T16:25:28;16.98;;;7.63;;
37593;SDS011;23441;50.856;6.076;2023-05-27T16:27:53;14.02;;;5.57;;
37593;SDS011;23441;50.856;6.076;2023-05-27T16:30:19;12.68;;;5.07;;
37593;SDS011;23441;50.856;6.076;2023-05-27T16:32:45;12.95;;;4.53;;
37593;SDS011;23441;50.856;6.076;2023-05-27T16:35:11;16.25;;;5.93;;
37593;SDS011;23441;50.856;6.076;2023-05-27T16:37:37;13.15;;;6.35;;
37593;SDS011;23441;50.856;6.076;2023-05-27T16:40:03;12.20;;;4.53;;
37593;SDS011;23441;50.856;6.076;2023-05-27T16:42:29;10.90;;;4.50;;
37593;SDS011;23441;50.856;6.076;2023-05-27T16:44:55;13.93;;;4.97;;
37593;SDS011;23441;50.856;6.076;2023-05-27T16:47:20;15.05;;;4.68;;
37593;SDS011;23441;50.856;6.076;2023-05-27T16:49:47;11.00;;;4.75;;
37593;SDS011;23441;50.856;6.076;2023-05-27T16:52:12;15.20;;;5.03;;
37593;SDS011;23441;50.856;6.076;2023-05-27T16:54:38;14.95;;;5.03;;
37593;SDS011;23441;50.856;6.076;2023-05-27T16:57:04;11.68;;;4.85;;
37593;SDS011;23441;50.856;6.076;2023-05-27T16:59:30;11.55;;;4.15;;
37593;SDS011;23441;50.856;6.076;2023-05-27T17:01:56;12.68;;;4.50;;
37593;SDS011;23441;50.856;6.076;2023-05-27T17:04:21;9.75;;;4.65;;
37593;SDS011;23441;50.856;6.076;2023-05-27T17:06:47;17.63;;;5.38;;
37593;SDS011;23441;50.856;6.076;2023-05-27T17:09:13;13.63;;;4.65;;
37593;SDS011;23441;50.856;6.076;2023-05-27T17:11:38;13.50;;;4.75;;
37593;SDS011;23441;50.856;6.076;2023-05-27T17:14:05;12.43;;;4.68;;
37593;SDS011;23441;50.856;6.076;2023-05-27T17:16:31;11.57;;;4.80;;
37593;SDS011;23441;50.856;6.076;2023-05-27T17:18:57;16.98;;;5.18;;
37593;SDS011;23441;50.856;6.076;2023-05-27T17:21:22;14.77;;;4.70;;
37593;SDS011;23441;50.856;6.076;2023-05-27T17:23:49;10.73;;;4.85;;
37593;SDS011;23441;50.856;6.076;2023-05-27T17:26:15;11.48;;;4.72;;
37593;SDS011;23441;50.856;6.076;2023-05-27T17:28:40;9.13;;;4.22;;
37593;SDS011;23441;50.856;6.076;2023-05-27T17:31:06;12.65;;;4.82;;
37593;SDS011;23441;50.856;6.076;2023-05-27T17:33:32;16.90;;;5.25;;
37593;SDS011;23441;50.856;6.076;2023-05-27T17:35:57;13.88;;;5.07;;
37593;SDS011;23441;50.856;6.076;2023-05-27T17:38:23;15.43;;;4.93;;
37593;SDS011;23441;50.856;6.076;2023-05-27T17:40:51;14.10;;;5.55;;
37593;SDS011;23441;50.856;6.076;2023-05-27T17:43:17;16.20;;;6.43;;
37593;SDS011;23441;50.856;6.076;2023-05-27T17:45:42;14.45;;;5.90;;
37593;SDS011;23441;50.856;6.076;2023-05-27T17:48:08;17.00;;;6.03;;
37593;SDS011;23441;50.856;6.076;2023-05-27T17:50:36;16.23;;;6.20;;
37593;SDS011;23441;50.856;6.076;2023-05-27T17:53:03;14.45;;;6.38;;
37593;SDS011;23441;50.856;6.076;2023-05-27T17:55:28;16.08;;;5.30;;
37593;SDS011;23441;50.856;6.076;2023-05-27T17:57:54;15.10;;;5.45;;
37593;SDS011;23441;50.856;6.076;2023-05-27T18:00:20;15.77;;;4.97;;
37593;SDS011;23441;50.856;6.076;2023-05-27T18:02:46;10.75;;;5.25;;
37593;SDS011;23441;50.856;6.076;2023-05-27T18:05:12;13.18;;;5.80;;
37593;SDS011;23441;50.856;6.076;2023-05-27T18:07:39;15.52;;;6.53;;
37593;SDS011;23441;50.856;6.076;2023-05-27T18:10:06;11.02;;;5.30;;
37593;SDS011;23441;50.856;6.076;2023-05-27T18:12:32;12.55;;;5.13;;
37593;SDS011;23441;50.856;6.076;2023-05-27T18:14:57;10.88;;;5.32;;
37593;SDS011;23441;50.856;6.076;2023-05-27T18:17:23;11.60;;;5.05;;
37593;SDS011;23441;50.856;6.076;2023-05-27T18:19:49;12.20;;;5.47;;
37593;SDS011;23441;50.856;6.076;2023-05-27T18:22:15;14.50;;;4.55;;
37593;SDS011;23441;50.856;6.076;2023-05-27T18:24:41;13.27;;;5.05;;
37593;SDS011;23441;50.856;6.076;2023-05-27T18:27:06;16.95;;;5.50;;
37593;SDS011;23441;50.856;6.076;2023-05-27T18:29:32;13.00;;;5.15;;
37593;SDS011;23441;50.856;6.076;2023-05-27T18:31:57;10.63;;;5.07;;
37593;SDS011;23441;50.856;6.076;2023-05-27T18:34:23;11.43;;;4.57;;
37593;SDS011;23441;50.856;6.076;2023-05-27T18:36:50;12.98;;;5.40;;
37593;SDS011;23441;50.856;6.076;2023-05-27T18:39:16;11.63;;;5.00;;
37593;SDS011;23441;50.856;6.076;2023-05-27T18:41:42;13.38;;;4.53;;
37593;SDS011;23441;50.856;6.076;2023-05-27T18:44:08;9.98;;;4.72;;
37593;SDS011;23441;50.856;6.076;2023-05-27T18:46:33;12.48;;;4.63;;
37593;SDS011;23441;50.856;6.076;2023-05-27T18:49:01;11.68;;;4.80;;
37593;SDS011;23441;50.856;6.076;2023-05-27T18:51:27;11.18;;;5.28;;
37593;SDS011;23441;50.856;6.076;2023-05-27T18:53:52;10.82;;;4.75;;
37593;SDS011;23441;50.856;6.076;2023-05-27T18:56:18;13.18;;;5.22;;
37593;SDS011;23441;50.856;6.076;2023-05-27T18:58:46;11.50;;;5.28;;